createdAt,value
2023-05-05T00:00:21.767Z,66.84
2023-05-05T00:03:25.210Z,67.32
2023-05-05T00:06:28.510Z,66.94
2023-05-05T00:09:30.601Z,67.40
2023-05-05T00:12:32.513Z,67.36
2023-05-05T00:15:36.289Z,67.10
2023-05-05T00:18:38.889Z,67.18
2023-05-05T00:21:41.567Z,67.60
2023-05-05T00:24:43.404Z,67.53
2023-05-05T00:27:45.298Z,67.53
2023-05-05T00:30:47.203Z,67.48
2023-05-05T00:33:49.135Z,67.45
2023-05-05T00:36:51.005Z,67.59
2023-05-05T00:39:52.937Z,67.84
2023-05-05T00:42:54.833Z,67.95
2023-05-05T00:46:02.314Z,67.26
2023-05-05T00:49:04.649Z,67.07
2023-05-05T00:52:07.561Z,67.54
2023-05-05T00:55:10.192Z,67.59
2023-05-05T00:58:13.714Z,67.44
2023-05-05T01:01:15.659Z,67.57
2023-05-05T01:04:18.202Z,67.92
2023-05-05T01:07:37.847Z,68.02
2023-05-05T01:10:48.782Z,66.95
2023-05-05T01:14:06.116Z,67.15
2023-05-05T01:17:17.895Z,67.27
2023-05-05T01:20:49.439Z,67.26
2023-05-05T01:24:25.358Z,67.64
2023-05-05T01:28:11.967Z,67.75
2023-05-05T01:31:33.563Z,68.08
2023-05-05T01:34:45.343Z,67.44
2023-05-05T01:37:57.576Z,67.37
2023-05-05T01:41:22.055Z,67.52
2023-05-05T01:44:24.332Z,68.08
2023-05-05T01:47:28.070Z,67.68
2023-05-05T01:50:30.970Z,68.44
2023-05-05T01:53:34.389Z,69.13
2023-05-05T01:56:40.367Z,68.43
2023-05-05T01:59:43.187Z,68.39
2023-05-05T02:02:49.900Z,68.50
2023-05-05T02:05:53.481Z,68.21
2023-05-05T02:08:58.549Z,68.44
2023-05-05T02:12:02.341Z,67.68
2023-05-05T02:15:06.118Z,68.04
2023-05-05T02:18:09.531Z,68.41
2023-05-05T02:21:11.489Z,68.55
2023-05-05T02:24:13.584Z,68.51
2023-05-05T02:27:18.991Z,68.80
2023-05-05T02:30:21.753Z,69.60
2023-05-05T02:33:26.219Z,69.85
2023-05-05T02:36:32.647Z,70.34
2023-05-05T02:40:11.375Z,71.46
2023-05-05T02:43:18.229Z,70.51
2023-05-05T02:46:20.990Z,70.49
2023-05-05T02:49:23.375Z,71.28
2023-05-05T02:52:25.675Z,70.34
2023-05-05T02:55:36.505Z,70.05
2023-05-05T02:58:48.862Z,69.89
2023-05-05T03:02:11.640Z,70.47
2023-05-05T03:05:19.142Z,70.26
2023-05-05T03:08:29.814Z,70.22
2023-05-05T03:11:49.807Z,70.59
2023-05-05T03:14:54.326Z,70.57
2023-05-05T03:17:58.541Z,71.18
2023-05-05T03:21:08.828Z,71.30
2023-05-05T03:24:14.441Z,73.41
2023-05-05T03:27:17.803Z,71.24
2023-05-05T03:30:20.351Z,71.06
2023-05-05T03:33:25.470Z,70.84
2023-05-05T03:36:30.092Z,69.40
2023-05-05T03:39:33.414Z,69.36
2023-05-05T03:42:35.887Z,69.79
2023-05-05T03:45:37.934Z,69.83
2023-05-05T03:48:41.826Z,70.78
2023-05-05T03:51:44.328Z,69.62
2023-05-05T03:54:46.356Z,69.14
2023-05-05T03:57:48.349Z,68.47
2023-05-05T04:00:50.253Z,67.62
2023-05-05T04:03:53.768Z,68.03
2023-05-05T04:06:55.712Z,67.30
2023-05-05T04:09:57.656Z,65.99
2023-05-05T04:12:59.962Z,66.18
2023-05-05T04:16:03.772Z,64.72
2023-05-05T04:19:06.198Z,63.55
2023-05-05T04:22:08.220Z,63.66
2023-05-05T04:25:11.026Z,62.65
2023-05-05T04:28:13.478Z,61.50
2023-05-05T04:31:15.573Z,60.81
2023-05-05T04:34:19.046Z,60.28
2023-05-05T04:37:21.198Z,59.65
2023-05-05T04:40:23.281Z,59.58
2023-05-05T04:43:25.392Z,58.97
2023-05-05T04:46:27.426Z,57.57
2023-05-05T04:49:30.378Z,56.34
2023-05-05T04:52:32.869Z,55.31
2023-05-05T04:55:35.056Z,54.08
2023-05-05T04:58:36.902Z,53.27
2023-05-05T05:01:38.921Z,52.74
2023-05-05T05:04:40.746Z,51.82
2023-05-05T05:07:42.702Z,50.58
2023-05-05T05:10:45.266Z,50.60
2023-05-05T05:13:47.223Z,49.94
2023-05-05T05:16:52.347Z,49.49
2023-05-05T05:19:59.264Z,48.36
2023-05-05T05:23:04.645Z,46.53
2023-05-05T05:26:09.993Z,46.39
2023-05-05T05:29:12.350Z,44.82
2023-05-05T05:32:14.555Z,45.63
2023-05-05T05:35:16.861Z,46.09
2023-05-05T05:38:19.459Z,45.73
2023-05-05T05:41:23.210Z,44.79
2023-05-05T05:44:25.166Z,44.40
2023-05-05T05:47:28.770Z,44.01
2023-05-05T05:50:32.172Z,43.84
2023-05-05T05:53:34.765Z,43.43
2023-05-05T05:56:37.081Z,43.70
2023-05-05T05:59:39.198Z,42.86
2023-05-05T06:02:42.656Z,42.57
2023-05-05T06:05:50.718Z,41.61
2023-05-05T06:08:54.196Z,41.21
2023-05-05T06:11:56.921Z,38.82
2023-05-05T06:14:59.205Z,40.85
2023-05-05T06:18:01.555Z,40.07
2023-05-05T06:21:04.601Z,38.91
2023-05-05T06:24:08.368Z,38.27
2023-05-05T06:27:11.501Z,38.35
2023-05-05T06:30:14.892Z,38.45
2023-05-05T06:33:17.314Z,37.69
2023-05-05T06:36:19.396Z,32.79
2023-05-05T06:39:22.727Z,35.93
2023-05-05T06:42:25.406Z,34.91
2023-05-05T06:45:31.284Z,32.17
2023-05-05T06:48:33.408Z,34.30
2023-05-05T06:51:36.628Z,33.56
2023-05-05T06:54:38.802Z,33.89
2023-05-05T06:57:43.374Z,32.80
2023-05-05T07:00:45.555Z,32.89
2023-05-05T07:03:49.028Z,32.73
2023-05-05T07:06:52.172Z,33.56
2023-05-05T07:09:55.513Z,33.30
2023-05-05T07:12:57.892Z,33.45
2023-05-05T07:16:00.140Z,32.01
2023-05-05T07:19:05.545Z,29.40
2023-05-05T07:22:07.477Z,30.02
2023-05-05T07:25:09.561Z,30.89
2023-05-05T07:28:11.401Z,29.66
2023-05-05T07:31:13.376Z,31.74
2023-05-05T07:34:15.297Z,29.86
2023-05-05T07:37:17.250Z,31.42
2023-05-05T07:40:19.117Z,32.18
2023-05-05T07:43:20.984Z,32.69
2023-05-05T07:46:22.896Z,32.53
2023-05-05T07:49:25.112Z,33.22
2023-05-05T07:52:43.337Z,30.85
2023-05-05T07:55:46.793Z,33.11
2023-05-05T07:58:48.827Z,33.17
2023-05-05T08:01:51.127Z,33.53
2023-05-05T08:04:53.970Z,33.46
2023-05-05T08:07:56.083Z,33.79
2023-05-05T08:10:57.903Z,32.91
2023-05-05T08:13:59.834Z,32.80
2023-05-05T08:17:01.771Z,32.38
2023-05-05T08:20:03.900Z,31.18
2023-05-05T08:23:06.555Z,33.03
2023-05-05T08:26:09.526Z,31.83
2023-05-05T08:29:11.672Z,32.40
2023-05-05T08:32:13.438Z,33.36
2023-05-05T08:35:15.468Z,32.23
2023-05-05T08:38:19.147Z,32.29
2023-05-05T08:41:21.232Z,31.53
2023-05-05T08:44:23.207Z,31.85
2023-05-05T08:47:25.285Z,32.08
2023-05-05T08:50:28.093Z,33.66
2023-05-05T08:53:53.166Z,34.30
2023-05-05T08:56:59.928Z,34.87
2023-05-05T09:00:03.082Z,35.87
2023-05-05T09:03:06.172Z,35.75
2023-05-05T09:06:09.653Z,36.57
2023-05-05T09:09:12.056Z,37.49
2023-05-05T09:12:15.816Z,38.07
2023-05-05T09:15:17.666Z,38.38
2023-05-05T09:18:19.517Z,37.97
2023-05-05T09:21:26.032Z,37.55
2023-05-05T09:24:27.860Z,36.70
2023-05-05T09:27:29.775Z,36.39
2023-05-05T09:30:31.713Z,36.14
2023-05-05T09:33:33.657Z,35.46
2023-05-05T09:36:47.663Z,34.95
2023-05-05T09:39:56.263Z,34.86
2023-05-05T09:43:02.374Z,34.44
2023-05-05T09:46:08.143Z,34.25
2023-05-05T09:49:18.247Z,34.57
2023-05-05T09:52:20.218Z,34.84
2023-05-05T09:55:22.151Z,34.97
2023-05-05T09:58:26.436Z,35.80
2023-05-05T10:01:28.366Z,35.66
2023-05-05T10:04:30.937Z,36.41
2023-05-05T10:07:33.638Z,37.07
2023-05-05T10:10:35.745Z,37.20
2023-05-05T10:13:40.226Z,37.07
2023-05-05T10:16:47.689Z,37.09
2023-05-05T10:19:52.397Z,37.63
2023-05-05T10:23:00.627Z,37.62
2023-05-05T10:26:06.339Z,37.72
2023-05-05T10:29:16.407Z,37.71
2023-05-05T10:32:51.944Z,38.96
2023-05-05T10:35:53.683Z,40.69
2023-05-05T10:38:59.357Z,42.61
2023-05-05T10:42:04.961Z,45.70
2023-05-05T10:45:07.841Z,48.57
2023-05-05T10:48:21.222Z,52.47
2023-05-05T10:51:47.088Z,53.22
2023-05-05T10:55:07.295Z,53.85
2023-05-05T10:58:09.093Z,55.76
2023-05-05T11:01:11.003Z,52.41
2023-05-05T11:04:23.790Z,53.23
2023-05-05T11:07:27.532Z,51.38
2023-05-05T11:10:44.147Z,51.64
2023-05-05T11:13:46.063Z,51.76
2023-05-05T11:16:49.985Z,50.55
2023-05-05T11:19:52.541Z,49.16
2023-05-05T11:23:03.769Z,46.27
2023-05-05T11:26:05.765Z,47.04
2023-05-05T11:29:08.337Z,46.73
2023-05-05T11:32:14.271Z,45.13
2023-05-05T11:35:16.319Z,43.37
2023-05-05T11:38:20.258Z,43.34
2023-05-05T11:41:34.106Z,43.05
2023-05-05T11:44:36.072Z,42.46
2023-05-05T11:47:38.340Z,42.21
2023-05-05T11:50:40.243Z,41.72
2023-05-05T11:53:46.601Z,41.97
2023-05-05T11:56:55.369Z,42.58
2023-05-05T12:00:00.499Z,42.47
2023-05-05T12:03:02.570Z,41.59
2023-05-05T12:06:05.255Z,42.02
2023-05-05T12:09:14.486Z,41.47
2023-05-05T12:12:17.184Z,41.87
2023-05-05T12:15:28.530Z,42.58
2023-05-05T12:18:30.704Z,42.86
2023-05-05T12:21:32.887Z,42.04
2023-05-05T12:24:35.060Z,42.43
2023-05-05T12:27:37.112Z,44.04
2023-05-05T12:34:17.298Z,46.10
2023-05-05T12:37:19.508Z,45.93
2023-05-05T12:40:40.007Z,46.99
2023-05-05T12:43:42.193Z,47.39
2023-05-05T12:46:48.650Z,50.16
2023-05-05T12:49:51.981Z,51.21
2023-05-05T12:52:54.427Z,50.92
2023-05-05T12:55:56.249Z,51.36
2023-05-05T12:58:58.234Z,53.36
2023-05-05T13:02:01.644Z,53.22
2023-05-05T13:05:03.858Z,53.57
2023-05-05T13:08:05.791Z,55.78
2023-05-05T13:11:07.712Z,53.15
2023-05-05T13:14:09.663Z,55.45
2023-05-05T13:17:12.176Z,55.37
2023-05-05T13:20:14.204Z,56.56
2023-05-05T13:23:18.704Z,56.34
2023-05-05T13:26:21.388Z,56.32
2023-05-05T13:29:25.590Z,55.72
2023-05-05T13:32:30.328Z,55.55
2023-05-05T13:35:33.034Z,55.17
2023-05-05T13:38:35.022Z,56.09
2023-05-05T13:41:36.965Z,57.31
2023-05-05T13:44:39.452Z,56.83
2023-05-05T13:47:42.129Z,56.13
2023-05-05T13:50:44.083Z,55.92
2023-05-05T13:53:46.663Z,55.57
2023-05-05T13:56:49.057Z,56.08
2023-05-05T13:59:50.954Z,56.91
2023-05-05T14:02:52.959Z,58.16
2023-05-05T14:05:54.842Z,58.41
2023-05-05T14:08:56.949Z,59.24
2023-05-05T14:11:59.129Z,58.14
2023-05-05T14:15:01.098Z,58.32
2023-05-05T14:18:03.235Z,58.53
2023-05-05T14:21:05.292Z,58.04
2023-05-05T14:24:07.418Z,57.90
2023-05-05T14:27:09.373Z,57.82
2023-05-05T14:30:11.680Z,56.38
2023-05-05T14:33:13.468Z,56.00
2023-05-05T14:36:15.420Z,55.62
2023-05-05T14:39:17.305Z,55.36
2023-05-05T14:42:19.147Z,54.24
2023-05-05T14:45:21.316Z,52.52
2023-05-05T14:48:23.269Z,52.32
2023-05-05T14:51:25.193Z,52.90
2023-05-05T14:54:28.794Z,53.68
2023-05-05T14:57:31.128Z,54.28
2023-05-05T15:00:33.094Z,54.46
2023-05-05T15:03:35.152Z,54.96
2023-05-05T15:06:37.077Z,55.11
2023-05-05T15:09:38.899Z,56.16
2023-05-05T15:12:40.924Z,56.38
2023-05-05T15:15:43.105Z,56.85
2023-05-05T15:18:45.108Z,57.08
2023-05-05T15:21:53.161Z,56.93
2023-05-05T15:24:55.102Z,57.54
2023-05-05T15:27:58.844Z,57.88
2023-05-05T15:31:02.233Z,57.96
2023-05-05T15:34:04.095Z,58.30
2023-05-05T15:37:06.163Z,58.37
2023-05-05T15:40:08.802Z,59.00
2023-05-05T15:43:10.768Z,58.58
2023-05-05T15:46:12.627Z,58.04
2023-05-05T15:49:14.422Z,58.36
2023-05-05T15:52:16.255Z,58.57
2023-05-05T15:55:18.160Z,58.53
2023-05-05T15:58:20.024Z,58.43
2023-05-05T16:01:22.010Z,58.73
2023-05-05T16:04:23.817Z,58.66
2023-05-05T16:07:25.637Z,59.18
2023-05-05T16:10:27.471Z,59.46
2023-05-05T16:13:29.669Z,59.33
2023-05-05T16:16:31.528Z,60.13
2023-05-05T16:19:33.341Z,59.86
2023-05-05T16:22:35.325Z,60.03
2023-05-05T16:25:37.309Z,60.46
2023-05-05T16:28:39.405Z,61.31
2023-05-05T16:31:41.442Z,60.91
2023-05-05T16:34:43.354Z,60.93
2023-05-05T16:37:45.184Z,61.24
2023-05-05T16:40:47.038Z,60.62
2023-05-05T16:43:49.763Z,60.38
2023-05-05T16:46:51.634Z,60.02
2023-05-05T16:49:53.488Z,60.23
2023-05-05T16:52:55.514Z,60.17
2023-05-05T16:55:57.456Z,60.23
2023-05-05T16:58:59.306Z,59.87
2023-05-05T17:02:01.250Z,59.83
2023-05-05T17:05:03.726Z,60.22
2023-05-05T17:08:05.565Z,60.13
2023-05-05T17:11:08.494Z,60.07
2023-05-05T17:14:11.489Z,60.30
2023-05-05T17:17:13.511Z,60.37
2023-05-05T17:20:15.644Z,60.53
2023-05-05T17:23:17.519Z,60.34
2023-05-05T17:26:19.423Z,60.08
2023-05-05T17:29:23.161Z,60.35
2023-05-05T17:32:25.058Z,60.48
2023-05-05T17:35:27.155Z,60.64
2023-05-05T17:38:29.007Z,60.88
2023-05-05T17:41:30.792Z,60.74
2023-05-05T17:44:32.756Z,61.00
2023-05-05T17:47:34.680Z,60.74
2023-05-05T17:50:36.900Z,60.79
2023-05-05T17:53:38.776Z,61.25
2023-05-05T17:56:40.673Z,61.22
2023-05-05T17:59:42.782Z,61.06
2023-05-05T18:02:45.451Z,61.13
2023-05-05T18:05:47.226Z,61.80
2023-05-05T18:08:49.434Z,61.21
2023-05-05T18:11:52.881Z,60.87
2023-05-05T18:14:54.790Z,61.18
2023-05-05T18:17:56.677Z,61.49
2023-05-05T18:20:58.530Z,61.02
2023-05-05T18:24:11.575Z,61.49
2023-05-05T18:27:20.970Z,61.09
2023-05-05T18:30:22.822Z,60.95
2023-05-05T18:33:24.629Z,60.87
2023-05-05T18:36:27.986Z,60.52
2023-05-05T18:39:30.389Z,60.79
2023-05-05T18:42:32.192Z,60.53
2023-05-05T18:45:34.241Z,60.75
2023-05-05T18:48:36.289Z,60.63
2023-05-05T18:51:38.198Z,60.84
2023-05-05T18:54:40.105Z,61.01
2023-05-05T18:57:41.956Z,61.24
2023-05-05T19:00:43.962Z,61.43
2023-05-05T19:03:49.030Z,61.97
2023-05-05T19:06:52.535Z,61.75
2023-05-05T19:09:54.699Z,62.13
2023-05-05T19:12:56.709Z,62.52
2023-05-05T19:15:58.941Z,62.02
2023-05-05T19:19:00.865Z,62.15
2023-05-05T19:22:03.606Z,61.96
2023-05-05T19:25:06.002Z,61.72
2023-05-05T19:28:07.805Z,61.51
2023-05-05T19:31:09.651Z,61.60
2023-05-05T19:34:11.556Z,61.07
2023-05-05T19:37:13.479Z,61.25
2023-05-05T19:40:15.626Z,61.21
2023-05-05T19:43:17.598Z,61.39
2023-05-05T19:46:19.936Z,61.31
2023-05-05T19:49:21.803Z,61.70
2023-05-05T19:52:23.715Z,61.53
2023-05-05T19:55:25.783Z,61.65
2023-05-05T19:58:27.622Z,61.91
2023-05-05T20:01:29.819Z,62.24
2023-05-05T20:04:31.749Z,62.77
2023-05-05T20:07:33.660Z,63.38
2023-05-05T20:10:36.677Z,63.23
2023-05-05T20:13:39.109Z,63.97
2023-05-05T20:16:42.067Z,64.01
2023-05-05T20:19:43.926Z,64.16
2023-05-05T20:22:46.814Z,64.81
2023-05-05T20:25:48.713Z,64.91
2023-05-05T20:28:50.650Z,65.24
2023-05-05T20:31:52.597Z,65.22
2023-05-05T20:34:54.627Z,65.01
2023-05-05T20:37:56.466Z,65.25
2023-05-05T20:40:58.426Z,65.21
2023-05-05T20:44:00.799Z,65.54
2023-05-05T20:47:02.822Z,65.58
2023-05-05T20:50:05.243Z,65.54
2023-05-05T20:53:11.602Z,65.73
2023-05-05T20:56:13.525Z,65.73
2023-05-05T20:59:15.387Z,66.37
2023-05-05T21:02:17.359Z,66.18
2023-05-05T21:05:19.630Z,66.56
2023-05-05T21:08:21.654Z,66.67
2023-05-05T21:11:23.577Z,66.76
2023-05-05T21:14:25.469Z,67.18
2023-05-05T21:17:27.943Z,67.53
2023-05-05T21:20:29.920Z,67.57
2023-05-05T21:23:31.935Z,67.62
2023-05-05T21:26:33.946Z,67.63
2023-05-05T21:29:37.885Z,67.66
2023-05-05T21:32:40.412Z,67.30
2023-05-05T21:35:42.253Z,67.43
2023-05-05T21:38:44.133Z,67.28
2023-05-05T21:41:45.972Z,67.71
2023-05-05T21:44:47.851Z,67.48
2023-05-05T21:47:49.988Z,67.61
2023-05-05T21:50:51.864Z,67.80
2023-05-05T21:53:53.771Z,67.73
2023-05-05T21:56:55.604Z,67.69
2023-05-05T21:59:57.501Z,67.67
2023-05-05T22:02:59.421Z,67.83
2023-05-05T22:06:01.369Z,68.31
2023-05-05T22:09:03.407Z,68.00
2023-05-05T22:12:05.550Z,67.93
2023-05-05T22:15:08.516Z,68.25
2023-05-05T22:18:10.673Z,68.73
2023-05-05T22:21:12.703Z,68.60
2023-05-05T22:24:14.625Z,68.73
2023-05-05T22:27:16.588Z,68.81
2023-05-05T22:30:18.400Z,68.99
2023-05-05T22:33:20.179Z,69.30
2023-05-05T22:36:23.070Z,69.33
2023-05-05T22:39:24.928Z,69.83
2023-05-05T22:42:26.922Z,69.72
2023-05-05T22:45:28.905Z,69.61
2023-05-05T22:48:31.370Z,69.65
2023-05-05T22:51:33.244Z,69.91
2023-05-05T22:54:35.052Z,70.09
2023-05-05T22:57:36.980Z,70.56
2023-05-05T23:00:39.256Z,70.60
2023-05-05T23:03:41.568Z,70.51
2023-05-05T23:06:44.945Z,70.64
2023-05-05T23:09:47.536Z,71.06
2023-05-05T23:12:49.474Z,71.14
2023-05-05T23:15:51.419Z,71.09
2023-05-05T23:18:53.280Z,71.29
2023-05-05T23:21:55.250Z,71.37
2023-05-05T23:24:57.092Z,71.51
2023-05-05T23:27:58.996Z,71.60
2023-05-05T23:31:01.027Z,71.69
2023-05-05T23:34:02.988Z,72.00
2023-05-05T23:37:06.239Z,71.79
2023-05-05T23:40:09.166Z,72.35
2023-05-05T23:43:12.126Z,72.17
2023-05-05T23:46:13.872Z,72.88
2023-05-05T23:49:15.805Z,72.37
2023-05-05T23:52:17.696Z,72.44
2023-05-05T23:55:19.654Z,72.41
2023-05-05T23:58:21.530Z,72.52
